Flight Track Log - Related Links

Times and Time Zones

All times are in EDT time to prevent confusion due to time zone crossing. See the UAL4543 flight status page for this flight to view local times or setup timezone preferences in your user account.

Time Position Orientation Groundspeed Altitude Reporting Facility
EDT Latitude Longitude Course Direction KTS MPH feet Rate Location/Type
Fri 09:00:00 PM 40.8024 -74.6938 287° West  Level FlightAware
Fri 09:01:00 PM 40.8334 -74.8276 287° West  Level FlightAware
Fri 09:02:00 PM 40.8667 -74.9577 270° West  Level FlightAware
Fri 09:03:00 PM 40.8948 -75.0896 303° West  Level FlightAware
Fri 09:04:00 PM 40.9000 -75.2119 270° West  Level FlightAware
Fri 09:05:00 PM 40.8667 -75.3381 270° West  Level FlightAware
Fri 09:06:00 PM 40.8370 -75.4648 255° West  Level FlightAware
Fri 09:07:00 PM 40.8119 -75.6002 254° West  Level FlightAware
Fri 09:08:00 PM 40.7830 -75.7347 252° West  Level FlightAware
Fri 09:09:00 PM 40.7499 -75.8674 252° West  Level FlightAware
Fri 09:10:00 PM 40.7167 -75.9989 270° West  Level FlightAware
Fri 09:11:00 PM 40.6820 -76.1296 248° West  Level FlightAware
Fri 09:12:00 PM 40.6545 -76.2603 282° West  Level FlightAware
Fri 09:13:00 PM 40.6772 -76.3966 282° West  Level FlightAware
Fri 09:14:00 PM 40.7000 -76.5329 282° West  Level FlightAware
Fri 09:15:00 PM 40.7215 -76.6696 280° West  Level FlightAware
Fri 09:16:00 PM 40.7395 -76.8073 280° West  Level FlightAware
Fri 09:17:00 PM 40.7574 -76.9450 280° West  Level FlightAware
Fri 09:18:00 PM 40.7783 -77.0820 283° West  Level FlightAware
Fri 09:19:00 PM 40.8023 -77.2181 283° West  Level FlightAware
Fri 09:20:00 PM 40.8236 -77.3550 279° West  Level FlightAware
Fri 09:21:00 PM 40.8413 -77.4930 280° West  Level FlightAware
Fri 09:22:00 PM 40.8597 -77.6308 280° West  Level FlightAware
Fri 09:23:00 PM 40.8763 -77.7690 278° West  Level FlightAware
Fri 09:24:00 PM 40.8917 -77.9075 278° West  Level FlightAware
Fri 09:25:00 PM 40.9123 -78.0447 285° West  Level FlightAware
Fri 09:26:00 PM 40.9333 -78.1819 281° West  Level FlightAware
Fri 09:27:00 PM 40.9529 -78.3196 281° West  Level FlightAware
Fri 09:28:00 PM 40.9713 -78.4576 279° West  Level FlightAware
Fri 09:29:00 PM 40.9869 -78.5963 279° West  Level FlightAware
Fri 09:30:00 PM 41.0024 -78.7351 278° West  Level FlightAware
Fri 09:31:00 PM 41.0177 -78.8739 278° West  Level FlightAware
Fri 09:32:00 PM 41.0328 -79.0127 278° West  Level FlightAware
Fri 09:33:00 PM 41.0477 -79.1517 278° West  Level FlightAware
Fri 09:34:00 PM 41.0625 -79.2907 278° West  Level FlightAware
Fri 09:35:00 PM 41.0771 -79.4297 278° West  Level FlightAware
Fri 09:36:00 PM 41.0915 -79.5688 278° West  Level FlightAware
Fri 09:37:00 PM 41.1058 -79.7080 278° West  Level FlightAware
Fri 09:38:00 PM 41.1199 -79.8473 278° West  Level FlightAware
Fri 09:39:00 PM 41.1339 -79.9866 278° West  Level FlightAware
Fri 09:40:00 PM 41.1476 -80.1259 278° West  Level FlightAware
Fri 09:41:00 PM 41.1653 -80.2645 280° West  Level FlightAware
Fri 09:42:00 PM 41.1837 -80.4030 278° West  Level FlightAware
Fri 09:43:00 PM 41.1983 -80.5423 278° West  Level FlightAware
Fri 09:44:00 PM 41.2127 -80.6817 278° West  Level FlightAware
Fri 09:45:00 PM 41.2270 -80.8211 278° West  Level FlightAware
Fri 09:46:00 PM 41.2411 -80.9606 278° West  Level FlightAware
Fri 09:47:00 PM 41.2550 -81.1002 278° West  Level FlightAware
Fri 09:48:00 PM 41.2686 -81.2399 277° West  Level FlightAware
Fri 09:49:00 PM 41.2822 -81.3795 277° West  Level FlightAware
Fri 09:50:00 PM 41.2955 -81.5193 277° West  Level FlightAware
Fri 09:51:00 PM 41.3081 -81.6592 277° West  Level FlightAware
Fri 09:52:00 PM 41.3203 -81.7992 277° West  Level FlightAware
Fri 09:53:00 PM 41.3323 -81.9392 277° West  Level FlightAware
Fri 09:54:00 PM 41.3441 -82.0793 276° West  Level FlightAware
Fri 09:55:00 PM 41.3553 -82.2195 276° West  Level FlightAware
Fri 09:56:00 PM 41.3658 -82.3599 276° West  Level FlightAware
Fri 09:57:00 PM 41.3761 -82.5003 276° West  Level FlightAware
Fri 09:58:00 PM 41.3834 -82.6409 270° West  Level FlightAware
Fri 09:59:00 PM 41.3862 -82.7818 274° West  Level FlightAware
Fri 10:00:00 PM 41.3942 -82.9225 274° West  Level FlightAware
Fri 10:01:00 PM 41.4022 -83.0632 274° West  Level FlightAware
Fri 10:02:00 PM 41.4099 -83.2039 274° West  Level FlightAware
Fri 10:03:00 PM 41.4175 -83.3447 274° West  Level FlightAware
Fri 10:04:00 PM 41.4249 -83.4855 274° West  Level FlightAware
Fri 10:05:00 PM 41.4321 -83.6264 274° West  Level FlightAware
Fri 10:06:00 PM 41.4374 -83.7674 273° West  Level FlightAware
Fri 10:07:00 PM 41.4422 -83.9084 273° West  Level FlightAware
Fri 10:08:00 PM 41.4468 -84.0495 273° West  Level FlightAware
Fri 10:09:00 PM 41.4515 -84.1906 273° West  Level FlightAware
Fri 10:10:00 PM 41.4565 -84.3317 273° West  Level FlightAware
Fri 10:11:00 PM 41.4613 -84.4727 273° West  Level FlightAware
Fri 10:12:00 PM 41.4660 -84.6139 273° West  Level FlightAware
Fri 10:13:00 PM 41.4839 -84.7527 272° West  Level FlightAware
Fri 10:14:00 PM 41.4883 -84.8939 272° West  Level FlightAware
Fri 10:15:00 PM 41.4925 -85.0350 272° West  Level FlightAware
Fri 10:16:00 PM 41.4964 -85.1763 272° West  Level FlightAware
Fri 10:17:00 PM 41.5003 -85.3175 272° West  Level FlightAware
Fri 10:18:00 PM 41.5039 -85.4588 272° West  Level FlightAware
Fri 10:19:00 PM 41.5074 -85.6000 272° West  Level FlightAware
Fri 10:20:00 PM 41.5107 -85.7413 272° West  Level FlightAware
Fri 10:21:00 PM 41.5139 -85.8826 272° West  Level FlightAware
Fri 10:22:00 PM 41.5167 -86.0239 270° West  Level FlightAware
Fri 10:23:00 PM 41.5167 -86.1653 270° West  Level FlightAware
Fri 10:24:00 PM 41.5188 -86.3066 272° West  Level FlightAware
Fri 10:25:00 PM 41.5221 -86.4479 272° West  Level FlightAware
Fri 10:26:00 PM 41.5253 -86.5892 272° West  Level FlightAware
Fri 10:27:00 PM 41.5282 -86.7306 272° West  Level FlightAware
Fri 10:28:00 PM 41.5310 -86.8719 272° West  Level FlightAware
Fri 10:29:00 PM 41.5333 -87.0133 270° West  Level FlightAware
Fri 10:30:00 PM 41.5334 -87.1547 270° West  Level FlightAware
Fri 10:31:00 PM 41.5338 -87.2961 270° West  Level FlightAware
Fri 10:32:00 PM 41.5342 -87.4375 270° West  Level FlightAware
Fri 10:33:00 PM 41.5345 -87.5789 270° West  Level FlightAware
Fri 10:34:00 PM 41.5347 -87.7203 270° West  Level FlightAware
Fri 10:35:00 PM 41.5346 -87.8617 270° West  Level FlightAware
Fri 10:36:00 PM 41.5344 -88.0031 270° West  Level FlightAware
Fri 10:37:00 PM 41.5340 -88.1445 270° West  Level FlightAware
Fri 10:38:00 PM 41.5335 -88.2859 270° West  Level FlightAware
Fri 10:39:00 PM 41.5336 -88.4273 270° West  Level FlightAware
Fri 10:40:00 PM 41.5337 -88.5687 270° West  Level FlightAware
Fri 10:41:00 PM 41.5337 -88.7101 270° West  Level FlightAware
Fri 10:42:00 PM 41.5335 -88.8515 270° West  Level FlightAware
Fri 10:43:00 PM 41.5335 -88.9930 270° West  Level FlightAware
Fri 10:44:00 PM 41.5335 -89.1344 270° West  Level FlightAware
Fri 10:45:00 PM 41.5334 -89.2757 270° West  Level FlightAware
Fri 10:46:00 PM 41.5337 -89.4172 270° West  Level FlightAware
Fri 10:47:00 PM 41.5341 -89.5586 270° West  Level FlightAware
Fri 10:48:00 PM 41.5344 -89.7000 270° West  Level FlightAware
Fri 10:49:00 PM 41.5345 -89.8414 270° West  Level FlightAware
Fri 10:50:00 PM 41.5344 -89.9828 270° West  Level FlightAware
Fri 10:51:00 PM 41.5342 -90.1242 270° West  Level FlightAware
Fri 10:52:00 PM 41.5337 -90.2656 270° West  Level FlightAware
Fri 10:53:00 PM 41.5334 -90.4070 270° West  Level FlightAware
Fri 10:54:00 PM 41.5334 -90.5484 270° West  Level FlightAware
Fri 10:55:00 PM 41.5334 -90.6898 270° West  Level FlightAware
Fri 10:56:00 PM 41.5283 -90.8309 265° West  Level FlightAware
Fri 10:57:00 PM 41.5195 -90.9718 265° West  Level FlightAware
Fri 10:58:00 PM 41.5167 -91.1130 270° West  Level FlightAware
Fri 10:59:00 PM 41.5167 -91.2544 270° West  Level FlightAware
Fri 11:00:00 PM 41.5167 -91.3958 270° West  Level FlightAware
Fri 11:01:00 PM 41.5167 -91.5371 270° West  Level FlightAware
Fri 11:02:00 PM 41.5167 -91.6785 270° West  Level FlightAware
Fri 11:03:00 PM 41.5167 -91.8199 270° West  Level FlightAware
Fri 11:04:00 PM 41.5167 -91.9612 270° West  Level FlightAware
Fri 11:05:00 PM 41.5169 -92.1026 270° West  Level FlightAware
Fri 11:06:00 PM 41.5171 -92.2440 270° West  Level FlightAware
Fri 11:07:00 PM 41.5171 -92.3853 270° West  Level FlightAware
Fri 11:08:00 PM 41.5169 -92.5267 270° West  Level FlightAware
Fri 11:09:00 PM 41.5167 -92.6681 270° West  Level FlightAware
Fri 11:10:00 PM 41.5167 -92.8094 270° West  Level FlightAware
Fri 11:11:00 PM 41.5217 -92.9505 275° West  Level FlightAware
Fri 11:12:00 PM 41.5299 -93.0915 275° West  Level FlightAware
Fri 11:13:00 PM 41.5334 -93.2327 270° West  Level FlightAware
Fri 11:14:00 PM 41.5333 -93.3741 270° West  Level FlightAware
Fri 11:15:00 PM 41.5334 -93.5155 270° West  Level FlightAware
Fri 11:16:00 PM 41.5333 -93.6500 270° West  Level FlightAware
Fri 11:17:00 PM 41.5340 -93.6631 270° West  Level Estimated
Fri 11:18:00 PM 41.5340 -93.6631 270° West  Level Estimated
Fri 11:19:00 PM 41.5340 -93.6631 270° West  Level Estimated
Fri 11:20:00 PM 41.5340 -93.6631 270° West  Level Estimated
Fri 11:21:00 PM 41.5340 -93.6631 270° West  Level Estimated
Fri 11:22:00 PM 41.5340 -93.6631 270° West  Level Estimated
Fri 11:23:00 PM 41.5340 -93.6631 270° West  Level Estimated
Fri 11:24:00 PM 41.5340 -93.6631 270° West  Level Estimated
Fri 11:25:00 PM 41.5340 -93.6631 270° West  Level Estimated
Fri 11:26:00 PM 41.5340 -93.6631 270° West  Level Estimated
Fri 11:27:00 PM 41.5340 -93.6631 270° West  Level Estimated
Fri 11:28:00 PM 41.5340 -93.6631 270° West  Level Estimated
Fri 11:29:00 PM 41.5340 -93.6631 270° West  Level Estimated
Fri 11:30:00 PM 41.5340 -93.6631 270° West  Level Estimated
Fri 11:31:00 PM 41.5340 -93.6631 270° West  Level Estimated

Login

Don't have an account? Register now (free) for customized features, flight alerts, and more!